createdAt,value
2022-10-20T00:04:19.670Z,96.39
2022-10-20T00:06:47.651Z,96.19
2022-10-20T00:09:16.601Z,96.98
2022-10-20T00:11:45.886Z,96.48
2022-10-20T00:14:13.686Z,95.99
2022-10-20T00:16:41.511Z,96.05
2022-10-20T00:19:09.148Z,95.28
2022-10-20T00:21:36.727Z,95.93
2022-10-20T00:24:04.721Z,95.92
2022-10-20T00:26:34.528Z,95.48
2022-10-20T00:29:03.466Z,95.52
2022-10-20T00:31:31.788Z,95.75
2022-10-20T00:33:59.330Z,95.02
2022-10-20T00:36:27.008Z,95.16
2022-10-20T00:38:58.988Z,94.88
2022-10-20T00:41:26.950Z,95.15
2022-10-20T00:43:57.996Z,94.81
2022-10-20T00:46:29.638Z,94.63
2022-10-20T00:48:59.577Z,94.26
2022-10-20T00:51:30.070Z,94.02
2022-10-20T00:54:04.328Z,94.32
2022-10-20T00:56:32.826Z,93.82
2022-10-20T00:59:03.480Z,94.14
2022-10-20T01:01:31.231Z,93.66
2022-10-20T01:03:59.237Z,93.51
2022-10-20T01:06:26.853Z,92.95
2022-10-20T01:08:55.583Z,92.60
2022-10-20T01:11:33.225Z,94.22
2022-10-20T01:14:15.399Z,94.02
2022-10-20T01:16:52.932Z,93.50
2022-10-20T01:19:55.810Z,93.51
2022-10-20T01:22:37.457Z,93.66
2022-10-20T01:25:18.985Z,93.42
2022-10-20T01:27:51.622Z,92.95
2022-10-20T01:30:21.179Z,93.32
2022-10-20T01:33:02.528Z,92.75
2022-10-20T01:35:40.682Z,93.15
2022-10-20T01:38:17.028Z,93.42
2022-10-20T01:40:49.524Z,92.73
2022-10-20T01:43:22.771Z,92.38
2022-10-20T01:45:53.528Z,92.37
2022-10-20T01:48:24.742Z,93.15
2022-10-20T01:50:52.991Z,92.92
2022-10-20T01:53:21.360Z,92.68
2022-10-20T01:55:51.909Z,92.17
2022-10-20T01:58:45.165Z,92.08
2022-10-20T02:01:21.366Z,92.50
2022-10-20T02:03:54.082Z,92.50
2022-10-20T02:06:32.349Z,91.91
2022-10-20T02:09:02.443Z,92.70
2022-10-20T02:11:39.548Z,92.47
2022-10-20T02:14:11.181Z,92.67
2022-10-20T02:16:44.113Z,92.63
2022-10-20T02:19:14.325Z,92.58
2022-10-20T02:21:41.974Z,93.18
2022-10-20T02:24:10.878Z,92.69
2022-10-20T02:26:41.087Z,93.13
2022-10-20T02:29:14.907Z,93.35
2022-10-20T02:31:43.745Z,94.33
2022-10-20T02:34:12.113Z,94.23
2022-10-20T02:36:41.547Z,93.95
2022-10-20T02:39:09.874Z,93.79
2022-10-20T02:41:38.098Z,93.36
2022-10-20T02:44:05.831Z,93.02
2022-10-20T02:46:34.843Z,93.43
2022-10-20T02:49:02.476Z,93.28
2022-10-20T02:51:30.083Z,92.91
2022-10-20T02:53:57.933Z,92.43
2022-10-20T02:56:27.613Z,91.63
2022-10-20T02:58:57.857Z,91.86
2022-10-20T03:01:25.861Z,92.13
2022-10-20T03:03:58.558Z,92.28
2022-10-20T03:06:26.763Z,92.47
2022-10-20T03:08:54.508Z,92.50
2022-10-20T03:11:22.215Z,92.79
2022-10-20T03:13:49.868Z,91.90
2022-10-20T03:16:17.563Z,91.95
2022-10-20T03:18:45.161Z,93.00
2022-10-20T03:21:14.028Z,92.91
2022-10-20T03:23:41.674Z,93.30
2022-10-20T03:26:11.410Z,93.04
2022-10-20T03:28:40.490Z,92.83
2022-10-20T03:31:08.816Z,91.82
2022-10-20T03:33:36.379Z,91.77
2022-10-20T03:36:04.644Z,92.29
2022-10-20T03:38:33.592Z,92.09
2022-10-20T03:43:33.745Z,92.66
2022-10-20T03:46:05.515Z,92.33
2022-10-20T03:48:33.692Z,92.62
2022-10-20T03:51:02.278Z,92.96
2022-10-20T03:53:30.568Z,92.66
2022-10-20T03:55:59.806Z,93.38
2022-10-20T03:58:27.324Z,92.61
2022-10-20T04:00:55.400Z,93.00
2022-10-20T04:03:22.939Z,92.39
2022-10-20T04:05:50.808Z,92.58
2022-10-20T04:08:18.367Z,92.46
2022-10-20T04:10:45.947Z,91.87
2022-10-20T04:13:14.869Z,92.09
2022-10-20T04:15:42.476Z,92.77
2022-10-20T04:18:10.148Z,92.61
2022-10-20T04:20:39.405Z,92.59
2022-10-20T04:23:09.644Z,92.68
2022-10-20T04:25:45.312Z,91.67
2022-10-20T04:28:13.077Z,92.25
2022-10-20T04:30:42.521Z,92.61
2022-10-20T04:33:10.458Z,91.98
2022-10-20T04:35:38.049Z,91.36
2022-10-20T04:38:06.441Z,91.92
2022-10-20T04:40:34.256Z,91.62
2022-10-20T04:43:02.268Z,92.18
2022-10-20T04:45:29.941Z,92.52
2022-10-20T04:47:58.877Z,92.42
2022-10-20T04:50:26.539Z,92.38
2022-10-20T04:52:54.116Z,92.18
2022-10-20T04:55:21.811Z,91.90
2022-10-20T04:57:49.592Z,92.11
2022-10-20T05:00:17.345Z,92.14
2022-10-20T05:02:45.050Z,92.69
2022-10-20T05:05:14.293Z,92.70
2022-10-20T05:07:41.809Z,92.51
2022-10-20T05:10:09.995Z,92.52
2022-10-20T05:12:37.884Z,92.72
2022-10-20T05:15:06.630Z,92.50
2022-10-20T05:17:34.171Z,92.65
2022-10-20T05:20:01.727Z,91.80
2022-10-20T05:22:31.745Z,92.51
2022-10-20T05:25:12.728Z,91.91
2022-10-20T05:27:46.812Z,92.44
2022-10-20T05:30:14.358Z,92.87
2022-10-20T05:32:41.900Z,92.80
2022-10-20T05:35:10.031Z,93.44
2022-10-20T05:37:38.930Z,93.06
2022-10-20T05:40:08.216Z,93.61
2022-10-20T05:42:36.862Z,93.21
2022-10-20T05:45:05.360Z,93.69
2022-10-20T05:47:33.267Z,93.51
2022-10-20T05:50:00.778Z,94.31
2022-10-20T05:52:28.601Z,94.59
2022-10-20T05:54:57.512Z,94.65
2022-10-20T05:57:25.099Z,93.94
2022-10-20T05:59:52.652Z,93.54
2022-10-20T06:02:20.814Z,93.90
2022-10-20T06:04:48.352Z,93.13
2022-10-20T06:07:16.187Z,92.91
2022-10-20T06:09:43.708Z,92.56
2022-10-20T06:12:12.597Z,92.84
2022-10-20T06:14:40.221Z,92.72
2022-10-20T06:17:07.762Z,92.51
2022-10-20T06:19:35.380Z,91.70
2022-10-20T06:22:05.940Z,91.00
2022-10-20T06:24:34.642Z,90.94
2022-10-20T06:27:02.291Z,90.26
2022-10-20T06:29:31.197Z,89.33
2022-10-20T06:31:58.703Z,88.52
2022-10-20T06:34:27.256Z,88.10
2022-10-20T06:36:54.874Z,88.02
2022-10-20T06:39:24.537Z,87.95
2022-10-20T06:41:53.353Z,87.72
2022-10-20T06:44:22.642Z,87.56
2022-10-20T06:46:52.684Z,88.00
2022-10-20T06:49:20.772Z,88.26
2022-10-20T06:51:48.626Z,88.33
2022-10-20T06:54:16.251Z,89.02
2022-10-20T06:56:43.771Z,89.59
2022-10-20T06:59:13.292Z,90.50
2022-10-20T07:01:42.143Z,90.08
2022-10-20T07:04:15.328Z,89.59
2022-10-20T07:06:45.415Z,89.92
2022-10-20T07:09:15.113Z,90.06
2022-10-20T07:11:43.125Z,90.04
2022-10-20T07:14:12.406Z,89.65
2022-10-20T07:16:40.115Z,90.21
2022-10-20T07:19:07.768Z,89.95
2022-10-20T07:21:40.199Z,90.43
2022-10-20T07:24:09.621Z,90.51
2022-10-20T07:26:39.242Z,89.09
2022-10-20T07:29:07.283Z,89.65
2022-10-20T07:31:37.686Z,90.07
2022-10-20T07:34:20.407Z,90.23
2022-10-20T07:36:54.318Z,89.72
2022-10-20T07:39:22.115Z,88.58
2022-10-20T07:41:49.698Z,86.55
2022-10-20T07:44:18.053Z,85.09
2022-10-20T07:46:45.831Z,82.41
2022-10-20T07:52:02.407Z,83.15
2022-10-20T07:54:30.037Z,84.03
2022-10-20T07:56:57.577Z,84.52
2022-10-20T07:59:25.337Z,83.77
2022-10-20T08:01:57.392Z,84.40
2022-10-20T08:04:26.288Z,86.24
2022-10-20T08:06:53.919Z,85.98
2022-10-20T08:09:22.832Z,85.23
2022-10-20T08:11:54.604Z,86.12
2022-10-20T08:14:23.929Z,86.39
2022-10-20T08:19:48.223Z,87.33
2022-10-20T08:22:16.173Z,86.86
2022-10-20T08:24:45.111Z,85.76
2022-10-20T08:27:12.709Z,85.84
2022-10-20T08:29:40.399Z,87.71
2022-10-20T08:32:08.281Z,86.93
2022-10-20T08:34:35.902Z,86.88
2022-10-20T08:37:03.600Z,86.93
2022-10-20T08:39:31.326Z,86.97
2022-10-20T08:42:08.507Z,88.26
2022-10-20T08:44:38.258Z,87.66
2022-10-20T08:47:15.127Z,86.96
2022-10-20T08:49:45.700Z,87.07
2022-10-20T08:52:15.789Z,86.89
2022-10-20T08:54:43.728Z,85.97
2022-10-20T08:57:23.258Z,85.25
2022-10-20T08:59:53.410Z,85.50
2022-10-20T09:02:21.365Z,86.26
2022-10-20T09:04:52.600Z,84.81
2022-10-20T09:07:26.567Z,85.74
2022-10-20T09:09:58.874Z,85.51
2022-10-20T09:12:31.120Z,85.70
2022-10-20T09:14:58.955Z,84.77
2022-10-20T09:17:26.645Z,82.92
2022-10-20T09:19:58.723Z,82.54
2022-10-20T09:22:33.347Z,82.72
2022-10-20T09:25:03.202Z,84.90
2022-10-20T09:27:35.165Z,85.55
2022-10-20T09:30:15.603Z,85.43
2022-10-20T09:32:56.300Z,85.31
2022-10-20T09:35:27.004Z,83.86
2022-10-20T09:37:59.441Z,84.01
2022-10-20T09:40:27.843Z,82.93
2022-10-20T09:43:00.043Z,82.70
2022-10-20T09:45:30.529Z,82.45
2022-10-20T09:48:04.277Z,80.14
2022-10-20T09:50:34.719Z,80.38
2022-10-20T09:53:05.802Z,80.94
2022-10-20T09:55:36.054Z,79.16
2022-10-20T09:58:06.861Z,81.53
2022-10-20T10:00:39.444Z,81.82
2022-10-20T10:03:20.838Z,81.44
2022-10-20T10:05:52.892Z,81.16
2022-10-20T10:08:22.652Z,82.13
2022-10-20T10:11:00.637Z,80.25
2022-10-20T10:13:32.125Z,81.01
2022-10-20T10:16:02.640Z,82.58
2022-10-20T10:18:30.795Z,82.25
2022-10-20T10:21:01.160Z,83.61
2022-10-20T10:23:30.151Z,84.10
2022-10-20T10:26:02.023Z,84.92
2022-10-20T10:28:38.490Z,84.01
2022-10-20T10:31:22.327Z,83.26
2022-10-20T10:33:52.870Z,82.08
2022-10-20T10:36:34.167Z,81.94
2022-10-20T10:39:03.188Z,82.25
2022-10-20T10:41:51.735Z,83.18
2022-10-20T10:44:34.790Z,84.25
2022-10-20T10:47:15.061Z,83.61
2022-10-20T10:49:54.710Z,82.32
2022-10-20T10:52:35.921Z,81.93
2022-10-20T10:55:30.549Z,83.15
2022-10-20T11:00:56.913Z,84.76
2022-10-20T11:04:03.887Z,85.33
2022-10-20T11:06:38.133Z,86.51
2022-10-20T11:09:20.806Z,86.36
2022-10-20T11:12:15.977Z,85.98
2022-10-20T11:14:58.438Z,86.17
2022-10-20T11:17:43.947Z,85.39
2022-10-20T11:20:27.449Z,84.45
2022-10-20T11:23:22.776Z,85.13
2022-10-20T11:25:57.173Z,84.04
2022-10-20T11:28:32.177Z,82.64
2022-10-20T11:31:00.407Z,82.16
2022-10-20T11:33:39.330Z,80.11
2022-10-20T11:36:15.872Z,79.25
2022-10-20T11:38:47.888Z,79.00
2022-10-20T11:41:19.253Z,81.53
2022-10-20T11:43:54.078Z,80.06
2022-10-20T11:46:26.667Z,79.02
2022-10-20T11:49:00.219Z,80.80
2022-10-20T11:51:56.510Z,82.19
2022-10-20T11:54:44.877Z,82.85
2022-10-20T11:57:24.389Z,83.48
2022-10-20T12:00:11.598Z,82.97
2022-10-20T12:03:13.399Z,82.33
2022-10-20T12:06:09.957Z,82.70
2022-10-20T12:09:21.660Z,82.42
2022-10-20T12:11:54.737Z,82.38
2022-10-20T12:14:28.635Z,81.75
2022-10-20T12:17:21.854Z,80.79
2022-10-20T12:19:51.603Z,79.83
2022-10-20T12:22:40.665Z,80.86
2022-10-20T12:25:36.810Z,79.78
2022-10-20T12:28:43.114Z,82.32
2022-10-20T12:31:10.687Z,82.51
2022-10-20T12:33:42.058Z,82.38
2022-10-20T12:36:34.294Z,83.05
2022-10-20T12:39:16.966Z,84.08
2022-10-20T12:41:56.528Z,84.23
2022-10-20T12:44:24.688Z,84.11
2022-10-20T12:46:59.038Z,84.70
2022-10-20T12:49:31.403Z,84.85
2022-10-20T12:52:00.445Z,84.55
2022-10-20T12:54:35.586Z,84.15
2022-10-20T12:57:06.516Z,84.09
2022-10-20T12:59:40.242Z,84.51
2022-10-20T13:02:47.724Z,84.29
2022-10-20T13:05:49.153Z,85.44
2022-10-20T13:08:29.732Z,84.83
2022-10-20T13:11:41.746Z,83.63
2022-10-20T13:14:33.294Z,83.73
2022-10-20T13:17:07.541Z,83.64
2022-10-20T13:19:44.468Z,84.19
2022-10-20T13:22:37.866Z,83.92
2022-10-20T13:25:14.076Z,84.53
2022-10-20T13:27:43.057Z,85.33
2022-10-20T13:30:19.262Z,84.86
2022-10-20T13:33:11.202Z,85.50
2022-10-20T13:35:51.647Z,85.91
2022-10-20T13:38:25.352Z,86.06
2022-10-20T13:43:39.578Z,86.08
2022-10-20T13:46:22.167Z,87.12
2022-10-20T13:49:13.322Z,87.96
2022-10-20T13:51:45.139Z,88.47
2022-10-20T13:54:22.595Z,87.07
2022-10-20T13:56:51.231Z,88.45
2022-10-20T13:59:24.730Z,88.80
2022-10-20T14:01:55.209Z,89.17
2022-10-20T14:04:28.087Z,89.16
2022-10-20T14:06:56.381Z,88.92
2022-10-20T14:09:26.074Z,89.81
2022-10-20T14:11:57.094Z,89.68
2022-10-20T14:14:28.245Z,90.34
2022-10-20T14:16:58.454Z,89.57
2022-10-20T14:19:28.095Z,89.88
2022-10-20T14:21:57.813Z,89.92
2022-10-20T14:24:31.953Z,89.27
2022-10-20T14:27:01.552Z,89.17
2022-10-20T14:29:35.530Z,88.85
2022-10-20T14:32:03.240Z,88.87
2022-10-20T14:34:37.670Z,88.80
2022-10-20T14:37:08.564Z,91.04
2022-10-20T14:39:38.681Z,91.88
2022-10-20T14:42:20.001Z,92.19
2022-10-20T14:44:50.468Z,93.16
2022-10-20T14:47:19.991Z,93.35
2022-10-20T14:49:52.377Z,93.05
2022-10-20T14:52:23.043Z,93.04
2022-10-20T14:54:51.471Z,93.67
2022-10-20T14:57:31.760Z,94.22
2022-10-20T15:00:03.971Z,95.63
2022-10-20T15:02:33.544Z,96.65
2022-10-20T15:05:23.273Z,96.27
2022-10-20T15:07:51.534Z,96.37
2022-10-20T15:10:21.645Z,97.19
2022-10-20T15:12:52.106Z,97.44
2022-10-20T15:15:23.955Z,97.71
2022-10-20T15:17:53.114Z,97.69
2022-10-20T15:20:33.147Z,98.23
2022-10-20T15:23:02.699Z,98.80
2022-10-20T15:25:32.028Z,99.63
2022-10-20T15:28:00.400Z,100.00
2022-10-20T15:30:30.124Z,100.00
2022-10-20T15:32:57.804Z,100.00
2022-10-20T15:35:25.651Z,100.00
2022-10-20T15:37:54.654Z,100.00
2022-10-20T15:40:22.619Z,100.00
2022-10-20T15:42:50.212Z,100.00
2022-10-20T15:45:19.782Z,100.00
2022-10-20T15:47:48.763Z,100.00
2022-10-20T15:50:18.490Z,100.00
2022-10-20T15:52:48.134Z,100.00
2022-10-20T15:55:22.545Z,100.00
2022-10-20T15:57:51.474Z,100.00
2022-10-20T16:00:20.154Z,100.00
2022-10-20T16:02:50.263Z,100.00
2022-10-20T16:05:19.078Z,100.00
2022-10-20T16:07:47.182Z,100.00
2022-10-20T16:10:15.110Z,100.00
2022-10-20T16:12:42.678Z,100.00
2022-10-20T16:15:12.189Z,100.00
2022-10-20T16:17:39.891Z,100.00
2022-10-20T16:20:10.378Z,100.00
2022-10-20T16:22:38.422Z,100.00
2022-10-20T16:25:07.042Z,100.00
2022-10-20T16:27:35.360Z,100.00
2022-10-20T16:30:04.572Z,100.00
2022-10-20T16:32:34.634Z,100.00
2022-10-20T16:35:03.544Z,100.00
2022-10-20T16:37:33.123Z,100.00
2022-10-20T16:40:00.950Z,100.00
2022-10-20T16:42:30.247Z,100.00
2022-10-20T16:44:58.556Z,100.00
2022-10-20T16:47:26.847Z,100.00
2022-10-20T16:49:54.515Z,100.00
2022-10-20T16:52:22.285Z,100.00
2022-10-20T16:54:51.182Z,100.00
2022-10-20T16:57:18.743Z,100.00
2022-10-20T16:59:49.860Z,100.00
2022-10-20T17:02:18.470Z,100.00
2022-10-20T17:04:49.191Z,100.00
2022-10-20T17:07:16.924Z,100.00
2022-10-20T17:09:44.612Z,100.00
2022-10-20T17:12:13.610Z,100.00
2022-10-20T17:14:41.568Z,100.00
2022-10-20T17:17:09.269Z,100.00
2022-10-20T17:19:36.900Z,100.00
2022-10-20T17:22:04.527Z,100.00
2022-10-20T17:24:32.191Z,100.00
2022-10-20T17:26:59.713Z,100.00
2022-10-20T17:29:28.726Z,100.00
2022-10-20T17:31:56.261Z,100.00
2022-10-20T17:34:23.851Z,100.00
2022-10-20T17:36:51.455Z,100.00
2022-10-20T17:39:21.958Z,100.00
2022-10-20T17:41:49.544Z,100.00
2022-10-20T17:44:17.182Z,100.00
2022-10-20T17:46:46.176Z,100.00
2022-10-20T17:49:14.111Z,100.00
2022-10-20T17:51:43.504Z,100.00
2022-10-20T17:54:11.338Z,100.00
2022-10-20T17:56:40.089Z,100.00
2022-10-20T17:59:08.524Z,100.00
2022-10-20T18:01:37.912Z,100.00
2022-10-20T18:04:09.143Z,100.00
2022-10-20T18:06:37.679Z,100.00
2022-10-20T18:09:10.678Z,100.00
2022-10-20T18:11:40.073Z,100.00
2022-10-20T18:14:07.723Z,100.00
2022-10-20T18:16:37.978Z,100.00
2022-10-20T18:19:07.894Z,100.00
2022-10-20T18:21:36.115Z,100.00
2022-10-20T18:24:06.432Z,100.00
2022-10-20T18:26:36.045Z,100.00
2022-10-20T18:29:05.033Z,100.00
2022-10-20T18:31:34.714Z,100.00
2022-10-20T18:34:06.867Z,100.00
2022-10-20T18:36:40.706Z,100.00
2022-10-20T18:39:11.557Z,100.00
2022-10-20T18:41:41.113Z,100.00
2022-10-20T18:44:12.451Z,100.00
2022-10-20T18:46:40.858Z,100.00
2022-10-20T18:49:10.082Z,100.00
2022-10-20T18:51:39.049Z,100.00
2022-10-20T18:54:08.482Z,100.00
2022-10-20T18:56:36.916Z,100.00
2022-10-20T18:59:09.130Z,100.00
2022-10-20T19:01:38.527Z,100.00
2022-10-20T19:04:07.485Z,100.00
2022-10-20T19:06:37.641Z,100.00
2022-10-20T19:09:09.047Z,100.00
2022-10-20T19:11:39.128Z,100.00
2022-10-20T19:14:09.440Z,100.00
2022-10-20T19:16:37.826Z,100.00
2022-10-20T19:19:07.973Z,100.00
2022-10-20T19:21:38.996Z,100.00
2022-10-20T19:24:10.178Z,100.00
2022-10-20T19:26:40.454Z,100.00
2022-10-20T19:29:10.817Z,100.00
2022-10-20T19:31:41.256Z,100.00
2022-10-20T19:34:11.338Z,100.00
2022-10-20T19:36:40.442Z,100.00
2022-10-20T19:39:12.015Z,100.00
2022-10-20T19:41:39.870Z,100.00
2022-10-20T19:44:07.914Z,100.00
2022-10-20T19:46:35.473Z,100.00
2022-10-20T19:49:03.217Z,100.00
2022-10-20T19:51:31.063Z,100.00
2022-10-20T19:53:59.453Z,100.00
2022-10-20T19:56:28.510Z,100.00
2022-10-20T19:58:56.310Z,100.00
2022-10-20T20:01:24.189Z,100.00
2022-10-20T20:03:51.937Z,100.00
2022-10-20T20:06:21.964Z,100.00
2022-10-20T20:08:52.703Z,100.00
2022-10-20T20:11:26.287Z,100.00
2022-10-20T20:13:57.964Z,100.00
2022-10-20T20:16:26.058Z,100.00
2022-10-20T20:18:54.164Z,100.00
2022-10-20T20:21:23.002Z,100.00
2022-10-20T20:23:59.326Z,100.00
2022-10-20T20:26:27.975Z,100.00
2022-10-20T20:28:57.553Z,100.00
2022-10-20T20:31:25.781Z,100.00
2022-10-20T20:33:54.306Z,100.00
2022-10-20T20:36:22.531Z,100.00
2022-10-20T20:38:52.578Z,100.00
2022-10-20T20:41:24.463Z,100.00
2022-10-20T20:43:52.132Z,100.00
2022-10-20T20:46:26.863Z,100.00
2022-10-20T20:48:54.526Z,100.00
2022-10-20T20:51:22.996Z,100.00
2022-10-20T20:53:50.751Z,100.00
2022-10-20T20:56:21.779Z,100.00
2022-10-20T20:58:55.004Z,100.00
2022-10-20T21:01:27.283Z,100.00
2022-10-20T21:03:56.212Z,100.00
2022-10-20T21:06:33.086Z,100.00
2022-10-20T21:09:02.436Z,100.00
2022-10-20T21:11:30.239Z,100.00
2022-10-20T21:13:58.868Z,100.00
2022-10-20T21:16:30.280Z,100.00
2022-10-20T21:18:59.797Z,100.00
2022-10-20T21:21:29.611Z,100.00
2022-10-20T21:23:58.073Z,100.00
2022-10-20T21:26:26.397Z,100.00
2022-10-20T21:28:54.694Z,100.00
2022-10-20T21:31:24.953Z,100.00
2022-10-20T21:33:55.856Z,100.00
2022-10-20T21:36:24.036Z,100.00
2022-10-20T21:38:52.201Z,100.00
2022-10-20T21:41:21.359Z,100.00
2022-10-20T21:43:50.772Z,100.00
2022-10-20T21:46:20.622Z,100.00
2022-10-20T21:48:51.007Z,100.00
2022-10-20T21:51:23.022Z,100.00
2022-10-20T21:53:51.136Z,100.00
2022-10-20T21:56:18.665Z,100.00
2022-10-20T21:58:46.372Z,100.00
2022-10-20T22:01:16.350Z,100.00
2022-10-20T22:03:44.974Z,100.00
2022-10-20T22:06:14.598Z,100.00
2022-10-20T22:08:45.762Z,100.00
2022-10-20T22:11:15.589Z,100.00
2022-10-20T22:13:43.497Z,100.00
2022-10-20T22:16:14.954Z,100.00
2022-10-20T22:18:42.774Z,100.00
2022-10-20T22:21:13.698Z,100.00
2022-10-20T22:23:43.433Z,100.00
2022-10-20T22:26:12.006Z,100.00
2022-10-20T22:28:39.757Z,100.00
2022-10-20T22:31:08.234Z,100.00
2022-10-20T22:33:36.258Z,100.00
2022-10-20T22:36:03.970Z,100.00
2022-10-20T22:38:32.077Z,100.00
2022-10-20T22:41:01.437Z,100.00
2022-10-20T22:43:29.814Z,100.00
2022-10-20T22:45:57.666Z,100.00
2022-10-20T22:48:25.630Z,100.00
2022-10-20T22:50:53.269Z,100.00
2022-10-20T22:53:20.851Z,100.00
2022-10-20T22:55:48.417Z,100.00
2022-10-20T22:58:17.352Z,100.00
2022-10-20T23:00:44.964Z,100.00
2022-10-20T23:03:12.551Z,100.00
2022-10-20T23:05:40.079Z,100.00
2022-10-20T23:08:07.862Z,100.00
2022-10-20T23:10:35.396Z,100.00
2022-10-20T23:13:03.080Z,100.00
2022-10-20T23:15:32.050Z,100.00
2022-10-20T23:17:59.621Z,100.00
2022-10-20T23:20:27.307Z,100.00
2022-10-20T23:22:54.926Z,100.00
2022-10-20T23:25:22.476Z,100.00
2022-10-20T23:27:50.034Z,100.00
2022-10-20T23:30:17.711Z,100.00
2022-10-20T23:32:46.707Z,100.00
2022-10-20T23:35:14.513Z,100.00
2022-10-20T23:37:42.152Z,100.00
2022-10-20T23:40:10.695Z,100.00
2022-10-20T23:42:38.275Z,100.00
2022-10-20T23:45:06.818Z,100.00
2022-10-20T23:47:34.589Z,100.00
2022-10-20T23:50:03.988Z,100.00
2022-10-20T23:52:31.583Z,100.00
2022-10-20T23:54:59.414Z,100.00
2022-10-20T23:57:27.071Z,100.00
2022-10-20T23:59:54.707Z,100.00
